Terminal Aerodrome Forecast
Issued by NWS

Home | Current Version | Previous Version | Text Only | Print | Product List | Glossary On
Versions: 1 2 3 4 5 6 7 8 9 10 11 12 13
174
FTAK31 PAJN 212004 AAA
TAFAPG
TAF AMD
PAPG 212004Z 2120/2218 12008KT 5SM -RA BR BKN015 OVC025
      WS020/15035KT
     FM220300 11008KT 6SM -RA BR SCT015 OVC030
     FM221500 20005KT P6SM -SHRA BKN025
      AMD LTD TO CLD VIS AND WIND 2206/2215=

USA.gov is the U.S. government's official web portal to all federal, state and local government web resources and services.